Time;durP1;ratioP1;P1;durP2;ratioP2;P2;SDS_P1;SDS_P2;PMS_P1;PMS_P2;Temp;Humidity;BMP_temperature;BMP_pressure;BME280_temperature;BME280_humidity;BME280_pressure;Samples;Min_cycle;Max_cycle;Signal;HPM_P1;HPM_P2
2023/06/01 00:00:45;;;;;;;81.00;72.85;;;;;;;11.49;47.81;100383.59;1859114;76;25582;-48
2023/06/01 00:03:12;;;;;;;78.02;73.02;;;;;;;11.49;48.09;100391.72;1859299;76;25551;-50
2023/06/01 00:05:39;;;;;;;82.70;77.10;;;;;;;11.47;48.03;100383.90;1859144;76;25558;-48
2023/06/01 00:08:05;;;;;;;80.17;74.72;;;;;;;11.48;47.94;100380.09;1858115;76;25670;-51
2023/06/01 00:10:32;;;;;;;78.07;72.90;;;;;;;11.45;47.90;100383.42;1819120;77;27468;-48
2023/06/01 00:12:58;;;;;;;79.50;73.80;;;;;;;11.45;48.05;100380.71;1859205;77;25531;-48
2023/06/01 00:15:25;;;;;;;77.12;71.90;;;;;;;11.43;48.04;100377.52;1859220;77;25541;-48
2023/06/01 00:17:51;;;;;;;77.53;72.35;;;;;;;11.40;48.20;100372.16;1859166;77;25513;-48
2023/06/01 00:20:18;;;;;;;81.78;76.20;;;;;;;11.39;48.18;100371.11;1820575;77;25575;-48
2023/06/01 00:22:46;;;;;;;78.12;72.78;;;;;;;11.35;48.27;100372.86;1859176;76;27462;-48
2023/06/01 00:25:12;;;;;;;76.30;71.33;;;;;;;11.32;48.51;100375.66;1859077;77;25575;-48
2023/06/01 00:27:38;;;;;;;78.20;73.02;;;;;;;11.30;48.29;100371.64;1859207;77;25591;-49
2023/06/01 00:30:07;;;;;;;79.93;74.60;;;;;;;11.29;48.58;100372.74;1859206;76;25508;-51
2023/06/01 00:32:33;;;;;;;52.85;49.27;;;;;;;11.26;48.62;100373.39;1859481;77;25540;-48
2023/06/01 00:34:59;;;;;;;75.87;70.83;;;;;;;11.25;48.90;100367.72;1859164;76;27511;-49
2023/06/01 00:37:25;;;;;;;78.30;72.80;;;;;;;4.90;48.70;99387.61;1859120;76;30042;-49
2023/06/01 00:39:51;;;;;;;77.35;72.03;;;;;;;11.16;48.82;100369.82;1859038;76;25544;-50
2023/06/01 00:42:18;;;;;;;78.78;73.15;;;;;;;11.13;48.75;100365.59;1859112;77;27412;-48
2023/06/01 00:44:44;;;;;;;74.65;69.82;;;;;;;11.05;49.08;100359.57;1859211;77;25444;-48
2023/06/01 00:47:10;;;;;;;78.60;73.30;;;;;;;10.98;49.40;100359.47;1859151;77;29648;-48
2023/06/01 00:49:37;;;;;;;73.15;68.28;;;;;;;10.87;49.52;100354.06;1866151;76;25351;-48
2023/06/01 00:52:05;;;;;;;51.85;48.38;;;;;;;10.80;49.64;100349.09;1859198;76;25365;-50
2023/06/01 00:54:31;;;;;;;73.87;68.83;;;;;;;9.30;49.82;100076.72;1859127;77;25592;-48
2023/06/01 00:56:57;;;;;;;76.62;71.62;;;;;;;10.72;49.78;100351.17;1859177;77;25584;-49
2023/06/01 00:59:24;;;;;;;77.97;72.85;;;;;;;10.68;50.04;100356.18;1859101;77;29738;-49
2023/06/01 01:01:52;;;;;;;79.27;73.45;;;;;;;10.64;50.06;100352.73;1859025;77;25552;-48
2023/06/01 01:04:25;;;;;;;79.75;74.53;;;;;;;10.62;50.34;100350.89;1859122;77;25508;-47
2023/06/01 01:07:06;;;;;;;79.35;73.85;;;;;;;10.60;50.28;100345.53;1858796;76;25354;-49
2023/06/01 01:09:38;;;;;;;79.05;73.52;;;;;;;10.59;50.43;100348.80;1788844;80;25538;-48
2023/06/01 01:12:25;;;;;;;78.97;73.60;;;;;;;10.56;50.71;100350.76;1803391;79;27485;-47
2023/06/01 01:14:56;;;;;;;75.00;69.85;;;;;;;10.48;50.48;100343.94;1788079;80;25377;-49
2023/06/01 01:17:32;;;;;;;83.67;77.92;;;;;;;10.48;50.48;100343.94;1809026;79;25379;-50
2023/06/01 01:20:28;;;;;;;79.10;73.35;;;;;;;10.43;50.77;100343.50;1809714;79;25360;-49
2023/06/01 01:23:46;;;;;;;79.65;74.15;;;;;;;10.36;50.88;100343.92;1776930;79;25635;-48
2023/06/01 01:26:24;;;;;;;75.97;70.17;;;;;;;10.29;51.17;100338.90;1809893;79;27525;-50
2023/06/01 01:29:12;;;;;;;84.62;76.65;;;;;;;10.25;51.42;100343.89;1789114;80;25688;-51
2023/06/01 01:31:40;;;;;;;57.17;53.10;;;;;;;10.18;51.38;100337.55;1810041;79;25561;-49
2023/06/01 01:34:08;;;;;;;82.50;74.90;;;;;;;10.11;51.60;100330.39;1809873;79;25598;-49
2023/06/01 01:36:35;;;;;;;80.60;75.03;;;;;;;10.04;51.97;100328.67;1789111;80;25486;-49
2023/06/01 01:39:03;;;;;;;75.87;70.78;;;;;;;9.99;51.94;100325.52;1804160;79;27465;-49
2023/06/01 01:41:30;;;;;;;79.82;73.92;;;;;;;9.94;51.79;100326.98;1794974;80;25599;-47
2023/06/01 01:43:59;;;;;;;77.87;72.65;;;;;;;9.88;52.01;100328.21;1827455;78;25541;-49
2023/06/01 01:46:28;;;;;;;77.10;71.90;;;;;;;9.82;52.50;100326.70;1795048;80;25454;-48
2023/06/01 01:49:32;;;;;;;77.20;71.77;;;;;;;9.73;52.61;100326.62;1827506;78;25483;-49
2023/06/01 01:52:10;;;;;;;79.00;73.50;;;;;;;9.68;52.53;100326.73;1794394;80;27586;-50
2023/06/01 01:54:43;;;;;;;78.62;73.22;;;;;;;9.60;52.87;100326.08;1827323;78;25607;-49
2023/06/01 01:57:13;;;;;;;79.75;74.20;;;;;;;9.52;53.37;100321.64;1794966;80;25533;-49
2023/06/01 01:59:43;;;;;;;10.03;4.90;;;;;;;9.48;53.72;100317.14;1806753;79;25604;-49
2023/06/01 02:02:10;;;;;;;49.93;46.00;;;;;;;9.48;53.75;100323.89;1795088;80;25546;-49
2023/06/01 02:04:43;;;;;;;79.40;73.90;;;;;;;9.45;54.11;100318.55;1806769;79;27442;-48
2023/06/01 02:07:09;;;;;;;51.28;47.50;;;;;;;9.43;54.60;100312.66;1794768;80;25436;-50
2023/06/01 02:09:36;;;;;;;79.37;73.92;;;;;;;9.42;54.49;100312.95;1824318;78;25551;-49
2023/06/01 02:12:04;;;;;;;80.10;74.45;;;;;;;9.39;54.58;100310.85;1794896;80;25392;-50
2023/06/01 02:14:30;;;;;;;78.28;72.72;;;;;;;9.38;54.70;100310.06;1827446;78;25460;-49
2023/06/01 02:16:57;;;;;;;83.17;76.20;;;;;;;9.34;54.65;100305.78;1794891;80;27459;-50
2023/06/01 02:19:24;;;;;;;80.77;75.03;;;;;;;9.34;54.89;100302.30;1806713;79;27291;-48
2023/06/01 02:21:50;;;;;;;80.80;75.30;;;;;;;9.30;54.64;100304.80;1794883;80;25541;-50
2023/06/01 02:24:16;;;;;;;56.55;52.55;;;;;;;9.29;55.00;100309.94;1827482;78;25476;-50
2023/06/01 02:26:42;;;;;;;80.53;74.75;;;;;;;9.27;55.22;100301.34;1794882;80;25379;-48
2023/06/01 02:29:09;;;;;;;82.05;76.45;;;;;;;9.23;55.51;100303.05;1827429;78;27470;-50
2023/06/01 02:31:35;;;;;;;81.08;75.05;;;;;;;9.21;55.32;100301.20;1794866;80;25537;-52
2023/06/01 02:34:02;;;;;;;70.12;65.28;;;;;;;9.18;55.71;100297.75;1806751;79;25563;-48
2023/06/01 02:36:29;;;;;;;81.80;76.07;;;;;;;9.16;55.79;100300.75;1794892;80;25458;-49
2023/06/01 02:38:56;;;;;;;80.10;74.45;;;;;;;9.12;56.45;100294.89;1806665;79;25403;-51
2023/06/01 02:41:22;;;;;;;81.53;75.67;;;;;;;9.10;56.17;100296.53;1794865;80;27541;-48
2023/06/01 02:43:50;;;;;;;79.62;73.92;;;;;;;9.07;56.51;100295.78;1827464;78;25589;-50
2023/06/01 02:46:18;;;;;;;82.65;76.95;;;;;;;9.05;56.53;100298.54;1794936;80;25600;-49
2023/06/01 02:48:45;;;;;;;82.37;76.62;;;;;;;9.05;56.66;100291.80;1827375;78;25979;-49
2023/06/01 02:51:13;;;;;;;84.07;78.05;;;;;;;9.04;57.04;100293.70;1794917;80;25604;-47
2023/06/01 02:53:40;;;;;;;80.28;74.82;;;;;;;9.03;57.07;100294.78;1806731;79;27550;-48
2023/06/01 02:56:07;;;;;;;79.45;74.05;;;;;;;9.02;57.30;100293.17;1794768;80;25612;-49
2023/06/01 02:58:34;;;;;;;78.40;73.10;;;;;;;9.03;57.17;100288.59;1827402;78;25526;-49
2023/06/01 03:01:00;;;;;;;79.37;73.87;;;;;;;9.04;57.21;100284.78;1794834;80;26013;-52
2023/06/01 03:03:27;;;;;;;80.30;74.62;;;;;;;9.13;57.50;100308.64;1827422;78;25445;-48
2023/06/01 03:05:55;;;;;;;76.35;71.15;;;;;;;9.03;57.45;100283.99;1794876;80;27500;-48
2023/06/01 03:08:24;;;;;;;79.58;74.27;;;;;;;9.02;57.37;100282.38;1806607;79;25775;-49
2023/06/01 03:10:49;;;;;;;79.55;74.03;;;;;;;9.04;57.62;100278.04;1792054;80;25474;-48
2023/06/01 03:13:15;;;;;;;83.20;77.45;;;;;;;9.04;57.83;100283.44;1827350;78;25642;-48
2023/06/01 03:15:41;;;;;;;77.20;71.83;;;;;;;9.06;58.17;100282.05;1794901;80;25455;-49
2023/06/01 03:18:13;;;;;;;79.45;74.03;;;;;;;9.07;57.95;100280.15;1806669;79;27482;-48
2023/06/01 03:20:36;;;;;;;82.55;76.42;;;;;;;9.09;58.11;100276.59;1794237;80;25594;-48
2023/06/01 03:23:02;;;;;;;74.60;69.37;;;;;;;9.15;58.00;100278.90;1827399;78;25431;-48
2023/06/01 03:25:29;;;;;;;73.25;68.50;;;;;;;9.20;58.09;100273.95;1794839;80;25557;-47
2023/06/01 03:27:55;;;;;;;78.57;73.28;;;;;;;9.25;58.12;100267.67;1806945;79;25412;-48
2023/06/01 03:30:22;;;;;;;82.35;76.20;;;;;;;9.30;58.24;100267.57;1795052;80;29614;-48
2023/06/01 03:32:48;;;;;;;79.55;74.05;;;;;;;9.34;58.06;100270.70;1827559;78;25412;-48
2023/06/01 03:35:15;;;;;;;78.55;73.07;;;;;;;9.39;58.16;100275.20;1795019;80;25457;-48
2023/06/01 03:37:45;;;;;;;77.72;72.27;;;;;;;9.43;58.22;100272.16;1827511;78;26408;-47
2023/06/01 03:40:12;;;;;;;80.10;74.63;;;;;;;9.47;58.28;100274.50;1792664;80;25627;-48
2023/06/01 03:42:41;;;;;;;78.93;73.33;;;;;;;9.49;58.43;100264.75;1809986;79;27572;-47
2023/06/01 03:45:10;;;;;;;77.17;71.97;;;;;;;9.52;58.65;100271.69;1810043;79;25672;-49
2023/06/01 03:47:37;;;;;;;77.70;72.22;;;;;;;9.62;58.64;100271.22;1809998;79;25566;-50
2023/06/01 03:50:07;;;;;;;80.32;74.90;;;;;;;9.62;58.64;100271.22;1809947;79;25534;-47
2023/06/01 03:52:35;;;;;;;75.70;70.70;;;;;;;9.54;59.00;100230.89;1810017;79;25455;-47
2023/06/01 03:55:08;;;;;;;72.78;67.78;;;;;;;9.54;59.00;100230.89;1809989;79;27459;-47
2023/06/01 03:57:37;;;;;;;75.08;70.03;;;;;;;9.84;58.94;100265.06;1809768;79;25443;-46
2023/06/01 04:00:18;;;;;;;79.25;73.72;;;;;;;9.92;58.75;100261.64;1809972;79;25536;-47
2023/06/01 04:02:49;;;;;;;82.10;76.28;;;;;;;10.04;58.86;100266.52;1789161;80;26560;-51
2023/06/01 04:05:16;;;;;;;79.95;74.62;;;;;;;10.16;58.48;100264.06;1803769;79;25383;-51
2023/06/01 04:07:46;;;;;;;76.33;71.33;;;;;;;10.26;58.35;100254.91;1789129;80;27493;-51
2023/06/01 04:10:13;;;;;;;80.67;75.25;;;;;;;10.36;58.21;100256.05;1810025;79;33098;-46
2023/06/01 04:12:42;;;;;;;74.22;69.40;;;;;;;10.49;58.08;100260.33;1810001;78;25403;-47
2023/06/01 04:15:11;;;;;;;76.70;71.53;;;;;;;10.59;57.90;100262.24;1810165;79;25522;-46
2023/06/01 04:17:39;;;;;;;75.90;71.03;;;;;;;10.72;57.92;100259.20;1810253;79;25552;-48
2023/06/01 04:20:10;;;;;;;77.32;72.35;;;;;;;10.85;57.92;100248.05;1789074;80;28016;-48
2023/06/01 04:22:37;;;;;;;70.70;66.00;;;;;;;10.97;57.72;100248.25;1809901;79;25550;-50
2023/06/01 04:25:12;;;;;;;74.97;70.03;;;;;;;11.10;57.77;100247.09;1809952;79;25538;-49
2023/06/01 04:27:47;;;;;;;75.33;70.13;;;;;;;11.23;57.53;100246.19;1809951;79;26224;-50
2023/06/01 04:30:15;;;;;;;79.97;74.72;;;;;;;;;;1810015;79;25384;-51
2023/06/01 04:32:44;;;;;;;76.50;71.33;;;;;;;;;;1810201;79;28099;-47
2023/06/01 04:35:10;;;;;;;78.62;73.52;;;;;;;;;;1809950;79;25944;-47
2023/06/01 04:37:39;;;;;;;75.80;70.90;;;;;;;;;;1809946;79;25545;-48
2023/06/01 04:40:09;;;;;;;74.67;69.67;;;;;;;;;;1813622;78;25541;-48
2023/06/01 04:42:38;;;;;;;76.85;71.45;;;;;;;;;;1827163;78;25384;-50
2023/06/01 04:45:09;;;;;;;80.72;75.12;;;;;;;;;;1827525;78;27510;-48
2023/06/01 04:47:39;;;;;;;72.08;67.35;;;;;;;;;;1824259;78;25422;-48
2023/06/01 04:50:08;;;;;;;72.80;68.07;;;;;;;;;;1827491;78;25402;-51
2023/06/01 04:52:35;;;;;;;73.67;68.70;;;;;;;;;;1824550;78;26206;-48
2023/06/01 04:55:07;;;;;;;76.37;71.42;;;;;;;;;;1827534;78;25541;-48
2023/06/01 04:57:35;;;;;;;74.17;69.10;;;;;;;;;;1827551;78;27701;-47
2023/06/01 05:00:06;;;;;;;52.25;48.92;;;;;;;;;;1827066;78;25530;-43
2023/06/01 05:02:31;;;;;;;73.87;68.70;;;;;;;;;;1827473;78;25605;-47
2023/06/01 05:04:57;;;;;;;75.40;70.57;;;;;;;;;;1827450;78;25597;-48
2023/06/01 05:07:24;;;;;;;75.13;70.20;;;;;;;;;;1827508;78;25392;-46
2023/06/01 05:09:50;;;;;;;74.00;68.62;;;;;;;;;;1827478;78;27553;-48
2023/06/01 05:12:16;;;;;;;81.65;75.62;;;;;;;;;;1827402;78;25732;-47
2023/06/01 05:14:42;;;;;;;77.10;71.37;;;;;;;;;;1827435;78;34906;-45
2023/06/01 05:17:08;;;;;;;81.80;76.25;;;;;;;;;;1827483;78;34801;-47
2023/06/01 05:19:34;;;;;;;78.53;72.63;;;;;;;;;;1827493;78;30301;-50
2023/06/01 05:22:00;;;;;;;77.70;71.75;;;;;;;;;;1827491;78;27563;-46
2023/06/01 05:24:26;;;;;;;78.80;73.28;;;;;;;;;;1827405;78;25578;-47
2023/06/01 05:26:53;;;;;;;75.77;70.33;;;;;;;;;;1827463;78;33281;-47
2023/06/01 05:29:19;;;;;;;52.17;48.42;;;;;;;;;;1827440;78;25540;-46
2023/06/01 05:31:46;;;;;;;76.17;70.97;;;;;;;;;;1827476;78;25379;-46
2023/06/01 05:34:13;;;;;;;74.22;69.30;;;;;;;;;;1827434;78;27546;-47
2023/06/01 05:36:39;;;;;;;77.70;72.62;;;;;;;;;;1827406;78;25524;-46
2023/06/01 05:39:06;;;;;;;60.07;56.60;;;;;;;;;;1827452;78;35107;-47
2023/06/01 05:41:33;;;;;;;7.43;7.03;;;;;;;;;;1815682;78;27658;-47
2023/06/01 05:44:00;;;;;;;51.42;46.83;;;;;;;;;;1809916;79;25514;-47
2023/06/01 05:46:27;;;;;;;6.78;6.47;;;;;;;;;;1809801;79;29660;-47
2023/06/01 05:48:55;;;;;;;8.28;3.42;;;;;;;;;;1809896;79;25485;-47
2023/06/01 05:51:22;;;;;;;14.38;4.80;;;;;;;;;;1810241;79;25381;-48
2023/06/01 05:53:49;;;;;;;26.25;23.85;;;;;;;;;;1809887;79;25529;-47
2023/06/01 05:56:17;;;;;;;75.65;70.87;;;;;;;;;;1809897;79;25492;-47
2023/06/01 05:58:44;;;;;;;76.57;70.80;;;;;;;;;;1809909;79;27338;-47
2023/06/01 06:01:11;;;;;;;75.50;70.47;;;;;;;;;;1809758;79;25299;-47
2023/06/01 06:03:38;;;;;;;74.65;69.75;;;;;;;;;;1809289;79;25449;-47
2023/06/01 06:06:05;;;;;;;76.60;70.78;;;;;;;;;;1808523;79;27681;-46
2023/06/01 06:08:32;;;;;;;72.58;67.78;;;;;;;;;;1809532;79;25555;-47
2023/06/01 06:10:59;;;;;;;73.30;68.07;;;;;;;;;;1809851;79;27396;-48
2023/06/01 06:13:26;;;;;;;75.45;69.75;;;;;;;;;;1809752;79;25289;-46
2023/06/01 06:15:54;;;;;;;74.20;68.83;;;;;;;;;;1809857;79;25466;-47
2023/06/01 06:18:21;;;;;;;63.53;58.90;;;;;;;;;;1810070;79;27704;-47
2023/06/01 06:20:48;;;;;;;74.42;69.22;;;;;;;;;;1809883;79;25307;-46
2023/06/01 06:23:15;;;;;;;75.45;70.40;;;;;;;;;;1809967;79;27422;-50
2023/06/01 06:25:43;;;;;;;70.00;65.30;;;;;;;;;;1809774;79;25352;-48
2023/06/01 06:28:10;;;;;;;70.67;66.05;;;;;;;;;;1809874;79;25521;-47
2023/06/01 06:30:37;;;;;;;69.40;64.77;;;;;;;;;;1809860;79;26209;-47
2023/06/01 06:33:04;;;;;;;72.00;67.58;;;;;;;;;;1809909;79;25467;-48
2023/06/01 06:35:31;;;;;;;71.55;67.05;;;;;;;;;;1809916;79;27416;-47
2023/06/01 06:37:59;;;;;;;73.12;68.25;;;;;;;;;;1809758;79;25698;-46
2023/06/01 06:40:26;;;;;;;7.80;3.90;;;;;;;;;;1811157;78;25296;-48
2023/06/01 06:42:52;;;;;;;9.00;3.50;;;;;;;;;;1827388;78;25564;-48
2023/06/01 06:45:20;;;;;;;9.60;3.27;;;;;;;;;;1827429;78;25277;-48
2023/06/01 06:47:46;;;;;;;9.28;3.72;;;;;;;;;;1827477;78;27411;-48
2023/06/01 06:50:14;;;;;;;9.10;3.40;;;;;;;;;;1827294;78;25442;-49
2023/06/01 06:52:40;;;;;;;8.48;3.02;;;;;;;;;;1826910;78;25484;-47
2023/06/01 06:55:09;;;;;;;8.90;3.30;;;;;;;;;;1826575;77;25582;-48
2023/06/01 06:57:36;;;;;;;12.55;3.30;;;;;;;;;;1827464;78;25502;-49
2023/06/01 07:00:05;;;;;;;7.87;3.33;;;;;;;;;;1827494;78;27362;-49
2023/06/01 07:02:32;;;;;;;13.38;3.15;;;;;;;;;;1827667;78;25897;-47
2023/06/01 07:04:59;;;;;;;11.48;6.67;;;;;;;;;;1827604;78;25477;-47
2023/06/01 07:07:26;;;;;;;68.25;64.10;;;;;;;;;;1827657;78;25584;-49
2023/06/01 07:09:53;;;;;;;69.07;64.95;;;;;;;;;;1827600;78;25276;-47
2023/06/01 07:12:20;;;;;;;72.70;68.02;;;;;;;;;;1827580;78;27329;-47
2023/06/01 07:14:47;;;;;;;9.23;3.15;;;;;;;;;;1827547;78;25637;-51
2023/06/01 07:17:14;;;;;;;8.58;3.85;;;;;;;;;;1827559;78;25329;-46
2023/06/01 07:19:41;;;;;;;46.40;43.17;;;;;;;;;;1827567;77;25529;-46
2023/06/01 07:22:08;;;;;;;7.33;3.05;;;;;;;;;;1827610;78;25507;-47
2023/06/01 07:24:35;;;;;;;7.55;2.80;;;;;;;;;;1827608;78;27455;-47
2023/06/01 07:27:03;;;;;;;21.05;19.12;;;;;;;;;;1827487;77;25312;-47
2023/06/01 07:29:30;;;;;;;7.05;2.80;;;;;;;;;;1827558;78;25286;-49
2023/06/01 07:31:57;;;;;;;58.75;55.23;;;;;;;;;;1827514;78;25565;-51
2023/06/01 07:34:25;;;;;;;66.57;62.35;;;;;;;;;;1827584;78;25310;-49
2023/06/01 07:36:52;;;;;;;63.17;58.65;;;;;;;;;;1827537;78;27523;-47
2023/06/01 07:39:19;;;;;;;67.17;62.90;;;;;;;;;;1827463;78;25666;-48
2023/06/01 07:41:46;;;;;;;46.40;43.40;;;;;;;;;;1818968;78;25289;-47
2023/06/01 07:44:18;;;;;;;16.57;11.03;;;;;;;;;;1809969;79;25608;-48
2023/06/01 07:46:42;;;;;;;4.87;2.67;;;;;;;;;;1810157;79;25431;-48
2023/06/01 07:49:13;;;;;;;8.03;2.95;;;;;;;;;;1809992;79;27408;-48
2023/06/01 07:51:38;;;;;;;8.93;3.10;;;;;;;;;;1809648;79;34713;-49
2023/06/01 07:54:05;;;;;;;8.15;2.98;;;;;;;;;;1809996;79;25453;-48
2023/06/01 07:56:32;;;;;;;7.10;2.35;;;;;;;;;;1810075;79;25582;-48
2023/06/01 07:59:00;;;;;;;9.60;2.87;;;;;;;;;;1810023;79;25479;-48
2023/06/01 08:01:27;;;;;;;5.80;2.60;;;;;;;;;;1809957;79;28007;-49
2023/06/01 08:03:56;;;;;;;4.95;2.37;;;;;;;;;;1809932;79;27268;-49
2023/06/01 08:06:23;;;;;;;8.43;2.50;;;;;;;;;;1810095;79;25473;-50
2023/06/01 08:08:52;;;;;;;5.05;2.30;;;;;;;;;;1809930;79;27633;-51
2023/06/01 08:11:19;;;;;;;5.95;2.70;;;;;;;;;;1810150;79;25453;-48
2023/06/01 08:13:46;;;;;;;7.80;5.80;;;;;;;;;;1809983;79;27429;-52
2023/06/01 08:16:13;;;;;;;5.10;2.30;;;;;;;;;;1809943;79;25441;-49
2023/06/01 08:18:40;;;;;;;4.95;2.33;;;;;;;;;;1810009;79;25339;-48
2023/06/01 08:21:10;;;;;;;8.78;2.30;;;;;;;;;;1809909;79;25603;-49
2023/06/01 08:23:37;;;;;;;5.15;2.55;;;;;;;;;;1810065;79;25343;-47
2023/06/01 08:26:04;;;;;;;6.58;2.42;;;;;;;;;;1810072;79;27072;-48
2023/06/01 08:28:32;;;;;;;6.40;2.58;;;;;;;;;;1809915;79;25431;-48
2023/06/01 08:31:00;;;;;;;13.20;5.45;;;;;;;;;;1810116;79;25493;-48
2023/06/01 08:33:27;;;;;;;6.45;2.05;;;;;;;;;;1809887;79;25540;-48
2023/06/01 08:35:55;;;;;;;7.30;2.25;;;;;;;;;;1810021;79;25446;-49
2023/06/01 08:38:21;;;;;;;4.85;2.47;;;;;;;;;;1809936;79;27432;-49
2023/06/01 08:40:48;;;;;;;8.60;2.65;;;;;;;;;;1809845;79;25468;-48
2023/06/01 08:43:19;;;;;;;5.25;2.40;;;;;;;;;;1809859;79;25341;-49
2023/06/01 08:45:51;;;;;;;6.87;2.52;;;;;;;;;;1809946;79;25575;-48
2023/06/01 08:48:17;;;;;;;4.92;2.10;;;;;;;;;;1808119;79;25302;-48
2023/06/01 08:50:50;;;;;;;10.75;1.90;;;;;;;;;;1810034;79;27485;-47
2023/06/01 08:53:18;;;;;;;3.40;2.27;;;;;;;;;;1809946;79;25333;-48
2023/06/01 08:55:46;;;;;;;5.75;2.00;;;;;;;;;;1809960;79;25430;-48
2023/06/01 08:58:14;;;;;;;7.90;2.52;;;;;;;;;;1810214;79;25517;-47
2023/06/01 09:00:42;;;;;;;5.65;2.70;;;;;;;;;;1809979;79;25303;-47
2023/06/01 09:03:10;;;;;;;4.05;2.05;;;;;;;;;;1778465;79;27329;-49
2023/06/01 09:05:37;;;;;;;59.70;56.25;;;;;;;;;;1809971;79;25446;-47
2023/06/01 09:08:05;;;;;;;59.88;56.45;;;;;;;;;;1778248;79;25486;-48
2023/06/01 09:10:32;;;;;;;7.83;2.47;;;;;;;;;;1810292;79;25295;-49
2023/06/01 09:13:00;;;;;;;8.45;2.70;;;;;;;;;;1810032;79;25469;-50
2023/06/01 09:15:27;;;;;;;;;;;;;;;;;;1812636;79;27445;-49
2023/06/01 09:18:06;;;;;;;9.20;3.10;;;;;;;;;;1809842;79;25331;-48
2023/06/01 09:20:34;;;;;;;5.22;2.72;;;;;;;;;;1809885;79;25392;-49
2023/06/01 09:23:01;;;;;;;59.23;55.23;;;;;;;;;;1810008;79;26033;-49
2023/06/01 09:25:31;;;;;;;56.98;53.78;;;;;;;;;;1810036;79;25295;-48
2023/06/01 09:28:00;;;;;;;58.63;55.43;;;;;;;;;;1809278;79;27465;-47
2023/06/01 09:30:42;;;;;;;57.93;54.75;;;;;;;;;;1809824;79;25287;-47
2023/06/01 09:33:20;;;;;;;60.70;57.20;;;;;;;;;;1808612;79;25528;-48
2023/06/01 09:35:48;;;;;;;19.00;17.42;;;;;;;;;;1809850;79;25478;-46
2023/06/01 09:38:22;;;;;;;;;;;;;;;;;;1812599;79;25442;-50
2023/06/01 09:40:58;;;;;;;4.70;2.95;;;;;;;;;;1809868;79;27443;-47
2023/06/01 09:43:25;;;;;;;4.37;2.95;;;;;;;;;;1824901;78;25437;-48
2023/06/01 09:46:09;;;;;;;8.28;3.33;;;;;;;;;;1827524;78;25433;-47
2023/06/01 09:48:36;;;;;;;8.28;3.12;;;;;;;;;;1827433;78;25454;-48
2023/06/01 09:51:04;;;;;;;57.15;53.98;;;;;;;;;;1827497;78;25510;-47
2023/06/01 09:53:41;;;;;;;55.95;52.75;;;;;;;;;;1827474;78;28038;-47
2023/06/01 09:56:08;;;;;;;57.80;54.42;;;;;;;;;;1827640;78;25328;-46
2023/06/01 09:58:39;;;;;;;58.70;54.75;;;;;;;;;;1827441;78;25565;-48
2023/06/01 10:01:07;;;;;;;6.20;3.30;;;;;;;;;;1827379;78;25582;-47
2023/06/01 10:03:34;;;;;;;3.95;3.17;;;;;;;;;;1827058;78;25431;-47
2023/06/01 10:06:02;;;;;;;8.63;3.00;;;;;;;;;;1827676;78;27397;-47
2023/06/01 10:08:30;;;;;;;4.45;3.17;;;;;;;;;;1827543;78;25442;-48
2023/06/01 10:10:57;;;;;;;8.10;3.33;;;;;;;;;;1827582;78;25505;-49
2023/06/01 10:13:24;;;;;;;10.78;3.17;;;;;;;;;;1827514;78;25537;-48
2023/06/01 10:15:55;;;;;;;8.90;3.50;;;;;;;;;;1827787;78;25516;-48
2023/06/01 10:18:22;;;;;;;6.95;3.20;;;;;;;;;;1827469;78;28017;-47
2023/06/01 10:20:49;;;;;;;11.15;3.40;;;;;;;;;;1827366;78;25469;-48
2023/06/01 10:23:16;;;;;;;6.25;3.55;;;;;;;;;;1827458;78;25478;-47
2023/06/01 10:25:46;;;;;;;7.17;3.42;;;;;;;;;;1827414;77;26461;-49
2023/06/01 10:28:14;;;;;;;5.90;3.02;;;;;;;;;;1827490;78;25453;-48
2023/06/01 10:30:40;;;;;;;12.07;2.73;;;;;;;;;;1827724;78;27415;-48
2023/06/01 10:33:08;;;;;;;7.33;3.10;;;;;;;;;;1827370;78;25902;-48
2023/06/01 10:35:45;;;;;;;5.12;2.70;;;;;;;;;;1827484;78;25484;-49
2023/06/01 10:38:17;;;;;;;5.25;3.20;;;;;;;;;;1827361;78;25474;-48
2023/06/01 10:40:46;;;;;;;6.55;2.83;;;;;;;;;;1827435;78;25469;-50
2023/06/01 10:43:38;;;;;;;6.37;2.67;;;;;;;;;;1827318;78;27399;-48
2023/06/01 10:46:32;;;;;;;56.73;53.40;;;;;;;;;;1827083;78;25315;-49
2023/06/01 10:48:59;;;;;;;55.48;52.48;;;;;;;;;;1827401;78;25447;-48
2023/06/01 10:51:27;;;;;;;54.75;51.48;;;;;;;;;;1827013;78;25481;-48
2023/06/01 10:54:15;;;;;;;55.65;52.30;;;;;;;;;;1826363;78;25449;-49
2023/06/01 10:56:42;;;;;;;55.60;52.55;;;;;;;;;;1827141;78;27533;-48
2023/06/01 10:59:13;;;;;;;56.37;53.35;;;;;;;;;;1827349;78;25647;-48
2023/06/01 11:01:43;;;;;;;55.20;52.08;;;;;;;;;;1827379;78;25444;-48
2023/06/01 11:04:10;;;;;;;55.08;51.68;;;;;;;;;;1827396;78;25523;-47
2023/06/01 11:06:40;;;;;;;;;;;;;;;;;;1830144;78;25452;-48
2023/06/01 11:09:12;;;;;;;57.27;53.98;;;;;;;;;;1827468;78;27394;-48
2023/06/01 11:11:52;;;;;;;56.48;53.38;;;;;;;;;;1827356;78;25357;-49
2023/06/01 11:14:23;;;;;;;58.63;54.90;;;;;;;;;;1827468;78;25293;-50
2023/06/01 11:16:54;;;;;;;56.65;52.60;;;;;;;;;;1827397;78;25492;-48
2023/06/01 11:19:27;;;;;;;53.90;49.98;;;;;;;;;;1827466;78;25495;-48
2023/06/01 11:22:01;;;;;;;53.28;49.77;;;;;;;;;;1827381;78;27957;-49
2023/06/01 11:24:35;;;;;;;52.70;49.77;;;;;;;;;;1827442;78;25655;-48
2023/06/01 11:27:08;;;;;;;52.53;49.58;;;;;;;;;;1826884;78;25448;-48
2023/06/01 11:29:36;;;;;;;56.00;52.70;;;;;;;;;;1827414;78;25482;-49
2023/06/01 11:32:07;;;;;;;54.80;51.35;;;;;;;;;;1827410;78;25437;-50
2023/06/01 11:34:41;;;;;;;20.08;17.37;;;;;;;;;;1827419;78;27402;-48
2023/06/01 11:37:18;;;;;;;3.35;2.67;;;;;;;;;;1827363;78;25363;-49
2023/06/01 11:39:47;;;;;;;6.62;3.02;;;;;;;;;;1827449;78;25441;-49
2023/06/01 11:42:19;;;;;;;3.80;2.60;;;;;;;;;;1827245;78;25556;-49
2023/06/01 11:44:58;;;;;;;7.62;2.60;;;;;;;;;;1827453;78;25463;-49
2023/06/01 11:47:29;;;;;;;9.50;2.75;;;;;;;;;;1827545;78;27436;-48
2023/06/01 11:49:56;;;;;;;55.67;52.78;;;;;;;;;;1827517;78;25412;-47
2023/06/01 11:52:23;;;;;;;57.17;52.95;;;;;;;;;;1827555;78;25493;-47
2023/06/01 11:54:53;;;;;;;57.38;54.08;;;;;;;;;;1827552;78;25485;-47
2023/06/01 11:57:20;;;;;;;54.95;51.95;;;;;;;;;;1827605;78;25347;-47
2023/06/01 11:59:49;;;;;;;55.20;52.08;;;;;;;;;;1827629;78;27419;-46
2023/06/01 12:02:25;;;;;;;3.98;2.90;;;;;;;;;;1827463;77;25502;-48
2023/06/01 12:05:05;;;;;;;3.98;2.58;;;;;;;;;;1827735;78;25429;-49
2023/06/01 12:07:31;;;;;;;5.37;2.90;;;;;;;;;;1798675;78;26448;-47
2023/06/01 12:10:01;;;;;;;5.75;3.33;;;;;;;;;;1827509;78;25477;-47
2023/06/01 12:12:33;;;;;;;6.75;2.85;;;;;;;;;;1827551;78;27459;-51
2023/06/01 12:14:59;;;;;;;6.60;3.12;;;;;;;;;;1827563;78;25354;-47
2023/06/01 12:17:33;;;;;;;55.13;51.73;;;;;;;;;;1827778;78;25452;-48
2023/06/01 12:20:00;;;;;;;53.92;50.83;;;;;;;;;;1821667;78;25601;-47
2023/06/01 12:22:32;;;;;;;54.63;51.63;;;;;;;;;;1827651;78;25463;-46
2023/06/01 12:25:03;;;;;;;54.05;51.15;;;;;;;;;;1827553;78;27364;-47
2023/06/01 12:27:32;;;;;;;55.23;52.10;;;;;;;;;;1827346;78;25513;-47
2023/06/01 12:29:59;;;;;;;55.58;52.50;;;;;;;;;;1827513;78;25086;-46
2023/06/01 12:32:30;;;;;;;53.52;50.30;;;;;;;;;;1827565;78;27710;-46
2023/06/01 12:35:06;;;;;;;50.65;47.88;;;;;;;;;;1825734;78;25260;-47
2023/06/01 12:37:34;;;;;;;58.23;54.98;;;;;;;;;;1827532;78;28010;-47
2023/06/01 12:40:03;;;;;;;53.75;50.63;;;;;;;;;;1827494;78;25492;-47
2023/06/01 12:42:40;;;;;;;56.77;53.70;;;;;;;;;;1825411;78;25312;-47
2023/06/01 12:45:08;;;;;;;56.68;53.28;;;;;;;;;;1810082;79;25548;-48
2023/06/01 12:47:38;;;;;;;54.25;51.15;;;;;;;;;;1810102;79;25348;-47
2023/06/01 12:50:11;;;;;;;54.30;51.35;;;;;;;;;;1809278;79;27543;-49
2023/06/01 12:52:42;;;;;;;53.78;50.92;;;;;;;;;;1809995;79;25275;-48
2023/06/01 12:55:10;;;;;;;58.20;54.58;;;;;;;;;;1809992;79;25492;-48
2023/06/01 12:57:38;;;;;;;58.28;53.48;;;;;;;;;;1809978;79;26312;-48
2023/06/01 13:00:07;;;;;;;44.63;41.98;;;;;;;;;;1810011;79;25513;-49
2023/06/01 13:02:34;;;;;;;6.33;2.45;;;;;;;;;;1809897;79;27399;-48
2023/06/01 13:05:05;;;;;;;5.95;2.98;;;;;;;;;;1809844;79;25867;-49
2023/06/01 13:07:34;;;;;;;11.53;3.20;;;;;;;;;;1809955;79;25482;-49
2023/06/01 13:10:01;;;;;;;7.95;2.70;;;;;;;;;;1810108;79;26633;-49
2023/06/01 13:12:28;;;;;;;10.03;2.83;;;;;;;;;;1809966;79;25205;-48
2023/06/01 13:14:55;;;;;;;4.45;2.52;;;;;;;;;;1809958;79;28049;-47
2023/06/01 13:17:23;;;;;;;;;;;;;;;;;;1812557;79;25558;-48
2023/06/01 13:19:52;;;;;;;5.55;3.20;;;;;;;;;;1809916;79;25332;-49
2023/06/01 13:22:20;;;;;;;;;;;;;;;;;;1812658;79;25454;-49
2023/06/01 13:24:50;;;;;;;8.40;2.95;;;;;;;;;;1810007;79;25533;-48